Big Rapids, MI (49307)

9:46 AM EDT on September 03, 2015 (GMT -0400)
The Spedowski's | | Change Station
CLOSE
Current Station
Personal Weather Station
Location: Big Rapids, MI
Elevation: 951 ft
Nearby Weather Stations

Elev 951 ft 43.71 °N, 85.48 °W | Updated 12 seconds ago

Thunderstorm
Thunderstorm
66.3 °F
Feels Like 66.3 °F
N
0.0
Wind Variable Wind from ESE
Gusts 0.0 mph

Today
High -- | Low -- °F
--% Chance of Precip.
Yesterday
High -- | Low -- °F
Precip. -- in
7:07 AM 8:14 PM
Waning Gibbous, 70% visible
Pressure 29.94 in
Visibility 5.0 miles
Clouds Scattered Clouds 1800 ft
Mostly Cloudy 2400 ft
Overcast 9500 ft
Dew Point 65 °F
Humidity 96%
Rainfall 1.27 in
Snow Depth Not available.
UV 1 out of 12
Pollen 9.80 out of 12
Air Quality Not available.
Flu Activity Not available.
METAR KRQB 031334Z AUTO 00000KT 5SM RA SCT018 BKN024 OVC095 18/18 A2994 RMK AO2 P0004 T01820177
Pressure 29.94 in
Visibility 5.0 miles
Clouds Scattered Clouds 1800 ft
Mostly Cloudy 2400 ft
Overcast 9500 ft
Dew Point 65 °F
Humidity 96%
Rainfall 1.27 in
Snow Depth Not available.
UV 1 out of 12
Pollen 9.80 out of 12
Air Quality Not available.
Flu Activity Not available.
METAR KRQB 031334Z AUTO 00000KT 5SM RA SCT018 BKN024 OVC095 18/18 A2994 RMK AO2 P0004 T01820177

10-Day Weather Forecast

×

Almanac

Astronomy

Sep. 03, 2015 Rise Set
Actual Time
Civil Twilight
Nautical Twilight
Astronomical Twilight
Moon
Length of Visible Light
Length of Day
Tomorrow will be .
, % of the Moon is Illuminated

Today's Extremes

State Highs State Lows

Community

WunderPhotos

Upload Photos

1,851,952 photos uploaded!

WunderBlogs® & News

Nearby

Air Quality

  Air Quality AQ Index Pollutant
Not available.

Snow Depth

Station Depth Elevation

Earthquake Activity

City Distance Mag. Time & Date
Minimum magnitude displayed is 2.5.

Coastal Water Temperatures

Place Temperature

Stations

Nearby Weather Stations

Station Location Temp. Windchill Dew Point Humidity Wind Precip. Elev Updated Type